sensor_id;sensor_type;location;lat;lon;timestamp;P1;durP1;ratioP1;P2;durP2;ratioP2
28447;SDS011;15675;52.870;-1.416;2023-04-03T00:01:27;9.82;;;4.93;;
28447;SDS011;15675;52.870;-1.416;2023-04-03T00:03:53;10.50;;;5.03;;
28447;SDS011;15675;52.870;-1.416;2023-04-03T00:06:19;14.00;;;4.85;;
28447;SDS011;15675;52.870;-1.416;2023-04-03T00:08:45;14.50;;;4.43;;
28447;SDS011;15675;52.870;-1.416;2023-04-03T00:11:11;14.40;;;4.13;;
28447;SDS011;15675;52.870;-1.416;2023-04-03T00:13:37;14.15;;;4.75;;
28447;SDS011;15675;52.870;-1.416;2023-04-03T00:16:04;11.10;;;3.85;;
28447;SDS011;15675;52.870;-1.416;2023-04-03T00:18:30;8.93;;;4.15;;
28447;SDS011;15675;52.870;-1.416;2023-04-03T00:20:57;11.20;;;5.18;;
28447;SDS011;15675;52.870;-1.416;2023-04-03T00:23:22;16.67;;;4.38;;
28447;SDS011;15675;52.870;-1.416;2023-04-03T00:25:49;9.45;;;4.53;;
28447;SDS011;15675;52.870;-1.416;2023-04-03T00:28:15;11.98;;;4.55;;
28447;SDS011;15675;52.870;-1.416;2023-04-03T00:30:40;12.55;;;4.95;;
28447;SDS011;15675;52.870;-1.416;2023-04-03T00:33:06;10.00;;;4.60;;
28447;SDS011;15675;52.870;-1.416;2023-04-03T00:35:33;13.60;;;5.15;;
28447;SDS011;15675;52.870;-1.416;2023-04-03T00:37:59;11.45;;;5.10;;
28447;SDS011;15675;52.870;-1.416;2023-04-03T00:40:26;15.98;;;5.15;;
28447;SDS011;15675;52.870;-1.416;2023-04-03T00:42:55;11.98;;;5.28;;
28447;SDS011;15675;52.870;-1.416;2023-04-03T00:45:25;9.70;;;4.68;;
28447;SDS011;15675;52.870;-1.416;2023-04-03T00:47:55;21.43;;;5.50;;
28447;SDS011;15675;52.870;-1.416;2023-04-03T00:50:22;22.20;;;5.28;;
28447;SDS011;15675;52.870;-1.416;2023-04-03T00:52:48;14.50;;;4.97;;
28447;SDS011;15675;52.870;-1.416;2023-04-03T00:55:14;10.80;;;4.47;;
28447;SDS011;15675;52.870;-1.416;2023-04-03T00:57:41;8.32;;;4.90;;
28447;SDS011;15675;52.870;-1.416;2023-04-03T01:00:09;10.23;;;5.07;;
28447;SDS011;15675;52.870;-1.416;2023-04-03T01:02:37;13.35;;;4.47;;
28447;SDS011;15675;52.870;-1.416;2023-04-03T01:05:03;13.75;;;4.88;;
28447;SDS011;15675;52.870;-1.416;2023-04-03T01:07:30;10.80;;;4.45;;
28447;SDS011;15675;52.870;-1.416;2023-04-03T01:09:57;11.23;;;4.65;;
28447;SDS011;15675;52.870;-1.416;2023-04-03T01:14:56;17.90;;;5.25;;
28447;SDS011;15675;52.870;-1.416;2023-04-03T01:17:35;9.65;;;4.15;;
28447;SDS011;15675;52.870;-1.416;2023-04-03T01:25:44;11.18;;;4.43;;
28447;SDS011;15675;52.870;-1.416;2023-04-03T01:28:22;10.70;;;4.00;;
28447;SDS011;15675;52.870;-1.416;2023-04-03T01:36:20;11.20;;;4.28;;
28447;SDS011;15675;52.870;-1.416;2023-04-03T01:38:49;10.93;;;5.07;;
28447;SDS011;15675;52.870;-1.416;2023-04-03T01:41:15;10.77;;;4.15;;
28447;SDS011;15675;52.870;-1.416;2023-04-03T01:43:41;9.07;;;3.95;;
28447;SDS011;15675;52.870;-1.416;2023-04-03T01:46:07;8.18;;;4.05;;
28447;SDS011;15675;52.870;-1.416;2023-04-03T01:48:33;8.95;;;4.63;;
28447;SDS011;15675;52.870;-1.416;2023-04-03T01:50:58;15.65;;;5.30;;
28447;SDS011;15675;52.870;-1.416;2023-04-03T01:53:24;9.13;;;5.90;;
28447;SDS011;15675;52.870;-1.416;2023-04-03T01:55:50;16.90;;;6.53;;
28447;SDS011;15675;52.870;-1.416;2023-04-03T01:58:15;13.63;;;6.45;;
28447;SDS011;15675;52.870;-1.416;2023-04-03T02:00:41;14.95;;;6.07;;
28447;SDS011;15675;52.870;-1.416;2023-04-03T02:03:06;11.63;;;5.85;;
28447;SDS011;15675;52.870;-1.416;2023-04-03T02:05:32;11.60;;;5.10;;
28447;SDS011;15675;52.870;-1.416;2023-04-03T02:07:58;12.45;;;6.20;;
28447;SDS011;15675;52.870;-1.416;2023-04-03T02:10:23;11.30;;;5.72;;
28447;SDS011;15675;52.870;-1.416;2023-04-03T02:12:49;10.30;;;4.72;;
28447;SDS011;15675;52.870;-1.416;2023-04-03T02:15:14;14.68;;;4.68;;
28447;SDS011;15675;52.870;-1.416;2023-04-03T02:17:40;13.85;;;5.72;;
28447;SDS011;15675;52.870;-1.416;2023-04-03T02:20:06;16.10;;;6.25;;
28447;SDS011;15675;52.870;-1.416;2023-04-03T02:22:33;11.00;;;5.50;;
28447;SDS011;15675;52.870;-1.416;2023-04-03T02:24:59;15.52;;;6.15;;
28447;SDS011;15675;52.870;-1.416;2023-04-03T02:27:25;17.80;;;6.78;;
28447;SDS011;15675;52.870;-1.416;2023-04-03T02:29:51;10.63;;;6.30;;
28447;SDS011;15675;52.870;-1.416;2023-04-03T02:32:16;12.52;;;5.18;;
28447;SDS011;15675;52.870;-1.416;2023-04-03T02:34:42;13.55;;;6.20;;
28447;SDS011;15675;52.870;-1.416;2023-04-03T02:37:07;16.33;;;5.65;;
28447;SDS011;15675;52.870;-1.416;2023-04-03T02:39:33;17.85;;;6.90;;
28447;SDS011;15675;52.870;-1.416;2023-04-03T02:41:59;13.52;;;6.57;;
28447;SDS011;15675;52.870;-1.416;2023-04-03T02:44:25;19.25;;;6.55;;
28447;SDS011;15675;52.870;-1.416;2023-04-03T02:46:50;13.63;;;6.20;;
28447;SDS011;15675;52.870;-1.416;2023-04-03T02:49:16;18.52;;;6.65;;
28447;SDS011;15675;52.870;-1.416;2023-04-03T02:51:41;9.93;;;6.40;;
28447;SDS011;15675;52.870;-1.416;2023-04-03T02:54:07;16.83;;;6.60;;
28447;SDS011;15675;52.870;-1.416;2023-04-03T02:56:33;13.57;;;6.25;;
28447;SDS011;15675;52.870;-1.416;2023-04-03T02:58:59;17.13;;;6.82;;
28447;SDS011;15675;52.870;-1.416;2023-04-03T03:01:25;20.65;;;7.45;;
28447;SDS011;15675;52.870;-1.416;2023-04-03T03:03:53;16.17;;;7.40;;
28447;SDS011;15675;52.870;-1.416;2023-04-03T03:06:19;16.92;;;7.57;;
28447;SDS011;15675;52.870;-1.416;2023-04-03T03:08:45;23.80;;;8.85;;
28447;SDS011;15675;52.870;-1.416;2023-04-03T03:11:10;19.73;;;7.13;;
28447;SDS011;15675;52.870;-1.416;2023-04-03T03:13:36;14.23;;;7.63;;
28447;SDS011;15675;52.870;-1.416;2023-04-03T03:16:02;12.15;;;6.35;;
28447;SDS011;15675;52.870;-1.416;2023-04-03T03:18:28;12.02;;;6.93;;
28447;SDS011;15675;52.870;-1.416;2023-04-03T03:20:55;11.43;;;7.03;;
28447;SDS011;15675;52.870;-1.416;2023-04-03T03:23:22;19.20;;;7.53;;
28447;SDS011;15675;52.870;-1.416;2023-04-03T03:25:53;13.50;;;7.65;;
28447;SDS011;15675;52.870;-1.416;2023-04-03T03:28:23;21.35;;;7.82;;
28447;SDS011;15675;52.870;-1.416;2023-04-03T03:30:48;14.70;;;7.40;;
28447;SDS011;15675;52.870;-1.416;2023-04-03T03:33:14;18.10;;;6.78;;
28447;SDS011;15675;52.870;-1.416;2023-04-03T03:35:41;15.20;;;7.10;;
28447;SDS011;15675;52.870;-1.416;2023-04-03T03:38:06;18.63;;;7.53;;
28447;SDS011;15675;52.870;-1.416;2023-04-03T03:40:32;15.18;;;6.22;;
28447;SDS011;15675;52.870;-1.416;2023-04-03T03:42:57;20.63;;;7.25;;
28447;SDS011;15675;52.870;-1.416;2023-04-03T03:45:23;15.43;;;7.00;;
28447;SDS011;15675;52.870;-1.416;2023-04-03T03:47:48;19.30;;;7.40;;
28447;SDS011;15675;52.870;-1.416;2023-04-03T03:50:14;17.70;;;7.35;;
28447;SDS011;15675;52.870;-1.416;2023-04-03T03:52:40;17.55;;;6.95;;
28447;SDS011;15675;52.870;-1.416;2023-04-03T03:55:05;12.70;;;6.57;;
28447;SDS011;15675;52.870;-1.416;2023-04-03T03:57:31;14.23;;;7.32;;
28447;SDS011;15675;52.870;-1.416;2023-04-03T03:59:57;17.10;;;7.57;;
28447;SDS011;15675;52.870;-1.416;2023-04-03T04:02:22;21.63;;;7.68;;
28447;SDS011;15675;52.870;-1.416;2023-04-03T04:04:48;16.42;;;7.35;;
28447;SDS011;15675;52.870;-1.416;2023-04-03T04:07:14;17.27;;;7.47;;
28447;SDS011;15675;52.870;-1.416;2023-04-03T04:09:40;15.80;;;7.03;;
28447;SDS011;15675;52.870;-1.416;2023-04-03T04:12:05;14.20;;;6.65;;
28447;SDS011;15675;52.870;-1.416;2023-04-03T04:14:31;11.32;;;6.18;;
28447;SDS011;15675;52.870;-1.416;2023-04-03T04:16:56;16.27;;;7.13;;
28447;SDS011;15675;52.870;-1.416;2023-04-03T04:19:22;14.90;;;7.00;;
28447;SDS011;15675;52.870;-1.416;2023-04-03T04:21:47;19.55;;;8.23;;
28447;SDS011;15675;52.870;-1.416;2023-04-03T04:24:13;13.93;;;7.95;;
28447;SDS011;15675;52.870;-1.416;2023-04-03T04:26:38;18.08;;;8.13;;
28447;SDS011;15675;52.870;-1.416;2023-04-03T04:29:04;13.45;;;7.75;;
28447;SDS011;15675;52.870;-1.416;2023-04-03T04:31:29;13.65;;;8.23;;
28447;SDS011;15675;52.870;-1.416;2023-04-03T04:33:55;16.98;;;7.95;;
28447;SDS011;15675;52.870;-1.416;2023-04-03T04:36:20;18.00;;;8.00;;
28447;SDS011;15675;52.870;-1.416;2023-04-03T04:38:46;15.35;;;7.82;;
28447;SDS011;15675;52.870;-1.416;2023-04-03T04:41:12;14.55;;;7.00;;
28447;SDS011;15675;52.870;-1.416;2023-04-03T04:43:37;14.70;;;8.10;;
28447;SDS011;15675;52.870;-1.416;2023-04-03T04:46:07;16.20;;;8.50;;
28447;SDS011;15675;52.870;-1.416;2023-04-03T04:48:35;15.10;;;7.75;;
28447;SDS011;15675;52.870;-1.416;2023-04-03T04:51:01;14.55;;;7.90;;
28447;SDS011;15675;52.870;-1.416;2023-04-03T04:53:27;12.68;;;5.97;;
28447;SDS011;15675;52.870;-1.416;2023-04-03T04:55:53;11.68;;;6.82;;
28447;SDS011;15675;52.870;-1.416;2023-04-03T04:58:18;14.73;;;7.10;;
28447;SDS011;15675;52.870;-1.416;2023-04-03T05:00:45;11.98;;;6.25;;
28447;SDS011;15675;52.870;-1.416;2023-04-03T05:03:10;13.00;;;7.00;;
28447;SDS011;15675;52.870;-1.416;2023-04-03T05:05:36;11.90;;;6.10;;
28447;SDS011;15675;52.870;-1.416;2023-04-03T05:08:02;16.48;;;7.28;;
28447;SDS011;15675;52.870;-1.416;2023-04-03T05:10:29;12.90;;;6.90;;
28447;SDS011;15675;52.870;-1.416;2023-04-03T05:12:54;19.40;;;7.57;;
28447;SDS011;15675;52.870;-1.416;2023-04-03T05:15:20;11.45;;;6.72;;
28447;SDS011;15675;52.870;-1.416;2023-04-03T05:17:45;13.88;;;7.35;;
28447;SDS011;15675;52.870;-1.416;2023-04-03T05:20:11;11.80;;;7.25;;
28447;SDS011;15675;52.870;-1.416;2023-04-03T05:22:37;23.50;;;8.00;;
28447;SDS011;15675;52.870;-1.416;2023-04-03T05:25:03;19.23;;;7.28;;
28447;SDS011;15675;52.870;-1.416;2023-04-03T05:27:29;13.98;;;7.65;;
28447;SDS011;15675;52.870;-1.416;2023-04-03T05:29:55;19.95;;;8.95;;
28447;SDS011;15675;52.870;-1.416;2023-04-03T05:32:21;16.02;;;8.02;;
28447;SDS011;15675;52.870;-1.416;2023-04-03T05:34:47;13.93;;;7.65;;
28447;SDS011;15675;52.870;-1.416;2023-04-03T05:37:13;15.05;;;8.60;;
28447;SDS011;15675;52.870;-1.416;2023-04-03T05:39:38;20.13;;;8.57;;
28447;SDS011;15675;52.870;-1.416;2023-04-03T05:42:06;21.60;;;8.55;;
28447;SDS011;15675;52.870;-1.416;2023-04-03T05:44:32;20.02;;;8.38;;
28447;SDS011;15675;52.870;-1.416;2023-04-03T05:46:58;17.40;;;8.55;;
28447;SDS011;15675;52.870;-1.416;2023-04-03T05:49:24;16.55;;;7.35;;
28447;SDS011;15675;52.870;-1.416;2023-04-03T05:51:50;17.95;;;8.23;;
28447;SDS011;15675;52.870;-1.416;2023-04-03T05:54:24;17.88;;;7.85;;
28447;SDS011;15675;52.870;-1.416;2023-04-03T05:56:51;15.90;;;7.65;;
28447;SDS011;15675;52.870;-1.416;2023-04-03T05:59:18;13.55;;;7.30;;
28447;SDS011;15675;52.870;-1.416;2023-04-03T06:01:45;15.35;;;6.60;;
28447;SDS011;15675;52.870;-1.416;2023-04-03T06:04:10;15.93;;;7.13;;
28447;SDS011;15675;52.870;-1.416;2023-04-03T06:06:50;15.02;;;7.32;;
28447;SDS011;15675;52.870;-1.416;2023-04-03T06:09:21;17.25;;;7.85;;
28447;SDS011;15675;52.870;-1.416;2023-04-03T06:11:49;19.45;;;8.32;;
28447;SDS011;15675;52.870;-1.416;2023-04-03T06:14:15;15.15;;;7.10;;
28447;SDS011;15675;52.870;-1.416;2023-04-03T06:16:41;25.05;;;8.00;;
28447;SDS011;15675;52.870;-1.416;2023-04-03T06:19:09;21.23;;;8.30;;
28447;SDS011;15675;52.870;-1.416;2023-04-03T06:21:36;19.17;;;7.15;;
28447;SDS011;15675;52.870;-1.416;2023-04-03T06:24:02;18.73;;;7.57;;
28447;SDS011;15675;52.870;-1.416;2023-04-03T06:26:29;12.77;;;7.85;;
28447;SDS011;15675;52.870;-1.416;2023-04-03T06:28:54;13.70;;;8.05;;
28447;SDS011;15675;52.870;-1.416;2023-04-03T06:31:21;16.70;;;7.85;;
28447;SDS011;15675;52.870;-1.416;2023-04-03T06:33:47;17.90;;;8.05;;
28447;SDS011;15675;52.870;-1.416;2023-04-03T06:36:12;19.83;;;9.02;;
28447;SDS011;15675;52.870;-1.416;2023-04-03T06:38:38;15.50;;;7.78;;
28447;SDS011;15675;52.870;-1.416;2023-04-03T06:41:03;22.40;;;9.30;;
28447;SDS011;15675;52.870;-1.416;2023-04-03T06:43:29;22.00;;;11.05;;
28447;SDS011;15675;52.870;-1.416;2023-04-03T06:45:56;18.70;;;9.35;;
28447;SDS011;15675;52.870;-1.416;2023-04-03T06:48:22;20.48;;;8.77;;
28447;SDS011;15675;52.870;-1.416;2023-04-03T06:50:48;20.33;;;10.02;;
28447;SDS011;15675;52.870;-1.416;2023-04-03T06:53:14;16.10;;;9.88;;
28447;SDS011;15675;52.870;-1.416;2023-04-03T06:55:40;26.73;;;10.52;;
28447;SDS011;15675;52.870;-1.416;2023-04-03T06:58:06;16.90;;;10.05;;
28447;SDS011;15675;52.870;-1.416;2023-04-03T07:00:32;23.38;;;10.75;;
28447;SDS011;15675;52.870;-1.416;2023-04-03T07:02:57;17.98;;;10.65;;
28447;SDS011;15675;52.870;-1.416;2023-04-03T07:05:23;15.63;;;9.18;;
28447;SDS011;15675;52.870;-1.416;2023-04-03T07:07:49;20.50;;;9.25;;
28447;SDS011;15675;52.870;-1.416;2023-04-03T07:10:15;16.00;;;10.05;;
28447;SDS011;15675;52.870;-1.416;2023-04-03T07:12:41;20.27;;;9.98;;
28447;SDS011;15675;52.870;-1.416;2023-04-03T07:15:07;26.25;;;10.30;;
28447;SDS011;15675;52.870;-1.416;2023-04-03T07:17:33;18.25;;;8.63;;
28447;SDS011;15675;52.870;-1.416;2023-04-03T07:19:59;18.88;;;8.90;;
28447;SDS011;15675;52.870;-1.416;2023-04-03T07:22:24;17.85;;;7.75;;
28447;SDS011;15675;52.870;-1.416;2023-04-03T07:24:50;20.00;;;9.07;;
28447;SDS011;15675;52.870;-1.416;2023-04-03T07:27:15;18.67;;;8.52;;
28447;SDS011;15675;52.870;-1.416;2023-04-03T07:29:42;18.10;;;8.05;;
28447;SDS011;15675;52.870;-1.416;2023-04-03T07:32:09;26.20;;;7.82;;
28447;SDS011;15675;52.870;-1.416;2023-04-03T07:34:35;25.95;;;8.27;;
28447;SDS011;15675;52.870;-1.416;2023-04-03T07:37:02;14.27;;;7.53;;
28447;SDS011;15675;52.870;-1.416;2023-04-03T07:39:28;17.73;;;8.18;;
28447;SDS011;15675;52.870;-1.416;2023-04-03T07:41:54;22.48;;;8.32;;
28447;SDS011;15675;52.870;-1.416;2023-04-03T07:44:22;18.15;;;7.45;;
28447;SDS011;15675;52.870;-1.416;2023-04-03T07:46:48;21.15;;;8.10;;
28447;SDS011;15675;52.870;-1.416;2023-04-03T07:49:16;27.35;;;7.97;;
28447;SDS011;15675;52.870;-1.416;2023-04-03T07:51:43;20.48;;;7.65;;
28447;SDS011;15675;52.870;-1.416;2023-04-03T07:54:09;16.80;;;7.78;;
28447;SDS011;15675;52.870;-1.416;2023-04-03T07:56:35;14.90;;;7.65;;
28447;SDS011;15675;52.870;-1.416;2023-04-03T07:59:01;15.52;;;7.43;;
28447;SDS011;15675;52.870;-1.416;2023-04-03T08:01:26;16.55;;;6.95;;
28447;SDS011;15675;52.870;-1.416;2023-04-03T08:03:52;15.43;;;6.47;;
28447;SDS011;15675;52.870;-1.416;2023-04-03T08:06:18;16.60;;;7.50;;
28447;SDS011;15675;52.870;-1.416;2023-04-03T08:08:44;11.07;;;6.63;;
28447;SDS011;15675;52.870;-1.416;2023-04-03T08:11:09;23.75;;;7.95;;
28447;SDS011;15675;52.870;-1.416;2023-04-03T08:13:35;17.85;;;6.32;;
28447;SDS011;15675;52.870;-1.416;2023-04-03T08:16:11;10.57;;;6.05;;
28447;SDS011;15675;52.870;-1.416;2023-04-03T08:18:38;18.52;;;6.47;;
28447;SDS011;15675;52.870;-1.416;2023-04-03T08:21:08;19.05;;;6.65;;
28447;SDS011;15675;52.870;-1.416;2023-04-03T08:23:35;11.88;;;6.18;;
28447;SDS011;15675;52.870;-1.416;2023-04-03T08:26:05;19.00;;;5.35;;
28447;SDS011;15675;52.870;-1.416;2023-04-03T08:28:32;16.25;;;5.97;;
28447;SDS011;15675;52.870;-1.416;2023-04-03T08:31:01;14.68;;;7.20;;
28447;SDS011;15675;52.870;-1.416;2023-04-03T08:33:28;16.65;;;7.05;;
28447;SDS011;15675;52.870;-1.416;2023-04-03T08:35:53;16.33;;;6.68;;
28447;SDS011;15675;52.870;-1.416;2023-04-03T08:38:19;16.73;;;7.47;;
28447;SDS011;15675;52.870;-1.416;2023-04-03T08:40:45;18.08;;;6.28;;
28447;SDS011;15675;52.870;-1.416;2023-04-03T08:43:17;10.57;;;5.20;;
28447;SDS011;15675;52.870;-1.416;2023-04-03T08:45:59;18.40;;;6.22;;
28447;SDS011;15675;52.870;-1.416;2023-04-03T08:48:33;15.20;;;5.28;;
28447;SDS011;15675;52.870;-1.416;2023-04-03T08:51:04;11.88;;;5.28;;
28447;SDS011;15675;52.870;-1.416;2023-04-03T08:53:40;9.75;;;3.53;;
28447;SDS011;15675;52.870;-1.416;2023-04-03T08:56:11;8.68;;;3.65;;
28447;SDS011;15675;52.870;-1.416;2023-04-03T08:58:50;9.65;;;3.28;;
28447;SDS011;15675;52.870;-1.416;2023-04-03T09:01:23;12.45;;;3.92;;
28447;SDS011;15675;52.870;-1.416;2023-04-03T09:03:53;16.08;;;3.50;;
28447;SDS011;15675;52.870;-1.416;2023-04-03T09:06:20;15.63;;;3.80;;
28447;SDS011;15675;52.870;-1.416;2023-04-03T09:11:24;11.60;;;2.70;;
28447;SDS011;15675;52.870;-1.416;2023-04-03T09:21:45;6.93;;;2.35;;
28447;SDS011;15675;52.870;-1.416;2023-04-03T09:24:12;3.95;;;2.25;;
28447;SDS011;15675;52.870;-1.416;2023-04-03T09:26:45;12.32;;;2.20;;
28447;SDS011;15675;52.870;-1.416;2023-04-03T09:29:20;9.07;;;3.15;;
28447;SDS011;15675;52.870;-1.416;2023-04-03T09:31:48;11.50;;;2.67;;
28447;SDS011;15675;52.870;-1.416;2023-04-03T09:36:49;5.93;;;1.65;;
28447;SDS011;15675;52.870;-1.416;2023-04-03T09:39:20;7.68;;;1.60;;
28447;SDS011;15675;52.870;-1.416;2023-04-03T09:42:30;10.10;;;2.35;;
28447;SDS011;15675;52.870;-1.416;2023-04-03T09:44:48;5.38;;;1.80;;
28447;SDS011;15675;52.870;-1.416;2023-04-03T09:52:34;11.60;;;2.15;;
28447;SDS011;15675;52.870;-1.416;2023-04-03T09:55:06;7.43;;;2.05;;
28447;SDS011;15675;52.870;-1.416;2023-04-03T09:57:33;5.80;;;2.33;;
28447;SDS011;15675;52.870;-1.416;2023-04-03T10:00:00;8.07;;;2.35;;
28447;SDS011;15675;52.870;-1.416;2023-04-03T10:05:05;8.10;;;2.50;;
28447;SDS011;15675;52.870;-1.416;2023-04-03T10:10:40;6.25;;;2.30;;
28447;SDS011;15675;52.870;-1.416;2023-04-03T10:15:51;11.82;;;3.17;;
28447;SDS011;15675;52.870;-1.416;2023-04-03T10:18:38;8.63;;;2.80;;
28447;SDS011;15675;52.870;-1.416;2023-04-03T10:23:43;6.60;;;2.00;;
28447;SDS011;15675;52.870;-1.416;2023-04-03T10:34:27;6.60;;;1.98;;
28447;SDS011;15675;52.870;-1.416;2023-04-03T10:50:22;7.82;;;2.67;;
28447;SDS011;15675;52.870;-1.416;2023-04-03T10:56:10;3.47;;;1.85;;
28447;SDS011;15675;52.870;-1.416;2023-04-03T11:01:20;7.57;;;2.47;;
28447;SDS011;15675;52.870;-1.416;2023-04-03T11:03:49;8.32;;;2.42;;
28447;SDS011;15675;52.870;-1.416;2023-04-03T11:06:22;7.20;;;2.80;;
28447;SDS011;15675;52.870;-1.416;2023-04-03T11:11:35;8.40;;;2.53;;
28447;SDS011;15675;52.870;-1.416;2023-04-03T11:14:05;9.90;;;2.03;;
28447;SDS011;15675;52.870;-1.416;2023-04-03T11:16:43;7.55;;;2.45;;
28447;SDS011;15675;52.870;-1.416;2023-04-03T11:19:20;10.75;;;2.72;;
28447;SDS011;15675;52.870;-1.416;2023-04-03T11:21:54;7.18;;;2.42;;
28447;SDS011;15675;52.870;-1.416;2023-04-03T11:24:32;7.65;;;2.25;;
28447;SDS011;15675;52.870;-1.416;2023-04-03T11:26:59;6.07;;;2.13;;
28447;SDS011;15675;52.870;-1.416;2023-04-03T11:29:32;9.88;;;2.38;;
28447;SDS011;15675;52.870;-1.416;2023-04-03T11:34:49;5.25;;;2.33;;
28447;SDS011;15675;52.870;-1.416;2023-04-03T11:40:45;6.25;;;2.40;;
28447;SDS011;15675;52.870;-1.416;2023-04-03T11:43:07;7.97;;;2.58;;
28447;SDS011;15675;52.870;-1.416;2023-04-03T11:45:56;7.32;;;2.17;;
28447;SDS011;15675;52.870;-1.416;2023-04-03T11:50:59;5.75;;;2.20;;
28447;SDS011;15675;52.870;-1.416;2023-04-03T11:53:48;5.22;;;2.50;;
28447;SDS011;15675;52.870;-1.416;2023-04-03T12:01:56;6.82;;;2.60;;
28447;SDS011;15675;52.870;-1.416;2023-04-03T12:04:26;5.57;;;2.30;;
28447;SDS011;15675;52.870;-1.416;2023-04-03T12:07:27;6.70;;;2.47;;
28447;SDS011;15675;52.870;-1.416;2023-04-03T12:12:31;6.00;;;2.42;;
28447;SDS011;15675;52.870;-1.416;2023-04-03T12:17:43;9.10;;;2.50;;
28447;SDS011;15675;52.870;-1.416;2023-04-03T12:20:45;12.00;;;2.65;;
28447;SDS011;15675;52.870;-1.416;2023-04-03T12:23:25;7.18;;;2.53;;
28447;SDS011;15675;52.870;-1.416;2023-04-03T12:25:59;10.32;;;2.72;;
28447;SDS011;15675;52.870;-1.416;2023-04-03T12:28:28;8.18;;;2.50;;
28447;SDS011;15675;52.870;-1.416;2023-04-03T12:30:53;5.22;;;2.70;;
28447;SDS011;15675;52.870;-1.416;2023-04-03T12:33:42;7.72;;;2.50;;
28447;SDS011;15675;52.870;-1.416;2023-04-03T12:36:28;7.88;;;2.53;;
28447;SDS011;15675;52.870;-1.416;2023-04-03T12:39:10;8.63;;;2.67;;
28447;SDS011;15675;52.870;-1.416;2023-04-03T12:46:58;11.25;;;3.13;;
28447;SDS011;15675;52.870;-1.416;2023-04-03T12:51:53;7.80;;;2.72;;
28447;SDS011;15675;52.870;-1.416;2023-04-03T12:54:22;7.38;;;2.65;;
28447;SDS011;15675;52.870;-1.416;2023-04-03T12:57:08;9.60;;;2.50;;
28447;SDS011;15675;52.870;-1.416;2023-04-03T12:59:38;6.65;;;3.22;;
28447;SDS011;15675;52.870;-1.416;2023-04-03T13:02:10;7.80;;;2.97;;
28447;SDS011;15675;52.870;-1.416;2023-04-03T13:04:45;10.73;;;2.45;;
28447;SDS011;15675;52.870;-1.416;2023-04-03T13:09:58;4.03;;;2.35;;
28447;SDS011;15675;52.870;-1.416;2023-04-03T13:12:54;5.63;;;2.53;;
28447;SDS011;15675;52.870;-1.416;2023-04-03T13:15:29;7.93;;;2.95;;
28447;SDS011;15675;52.870;-1.416;2023-04-03T13:17:56;6.07;;;2.90;;
28447;SDS011;15675;52.870;-1.416;2023-04-03T13:20:26;8.82;;;2.85;;
28447;SDS011;15675;52.870;-1.416;2023-04-03T13:22:59;7.50;;;2.50;;
28447;SDS011;15675;52.870;-1.416;2023-04-03T13:25:34;7.93;;;2.50;;
28447;SDS011;15675;52.870;-1.416;2023-04-03T13:28:04;10.43;;;2.85;;
28447;SDS011;15675;52.870;-1.416;2023-04-03T13:30:33;7.93;;;2.65;;
28447;SDS011;15675;52.870;-1.416;2023-04-03T13:33:02;7.72;;;2.60;;
28447;SDS011;15675;52.870;-1.416;2023-04-03T13:35:37;8.52;;;2.95;;
28447;SDS011;15675;52.870;-1.416;2023-04-03T13:40:52;7.78;;;2.13;;
28447;SDS011;15675;52.870;-1.416;2023-04-03T13:43:24;7.90;;;2.40;;
28447;SDS011;15675;52.870;-1.416;2023-04-03T13:45:56;9.13;;;2.75;;
28447;SDS011;15675;52.870;-1.416;2023-04-03T13:48:37;4.93;;;2.15;;
28447;SDS011;15675;52.870;-1.416;2023-04-03T13:51:07;5.07;;;2.72;;
28447;SDS011;15675;52.870;-1.416;2023-04-03T13:53:59;5.25;;;2.25;;
28447;SDS011;15675;52.870;-1.416;2023-04-03T13:56:33;9.07;;;2.50;;
28447;SDS011;15675;52.870;-1.416;2023-04-03T14:01:51;5.88;;;2.47;;
28447;SDS011;15675;52.870;-1.416;2023-04-03T14:04:35;5.45;;;2.33;;
28447;SDS011;15675;52.870;-1.416;2023-04-03T14:07:09;6.63;;;2.15;;
28447;SDS011;15675;52.870;-1.416;2023-04-03T14:09:36;6.35;;;2.40;;
28447;SDS011;15675;52.870;-1.416;2023-04-03T14:12:04;7.32;;;2.38;;
28447;SDS011;15675;52.870;-1.416;2023-04-03T14:14:34;3.80;;;1.50;;
28447;SDS011;15675;52.870;-1.416;2023-04-03T14:17:02;8.05;;;2.45;;
28447;SDS011;15675;52.870;-1.416;2023-04-03T14:19:38;6.38;;;2.20;;
28447;SDS011;15675;52.870;-1.416;2023-04-03T14:22:10;5.40;;;2.17;;
28447;SDS011;15675;52.870;-1.416;2023-04-03T14:24:40;11.02;;;2.50;;
28447;SDS011;15675;52.870;-1.416;2023-04-03T14:27:10;9.50;;;2.72;;
28447;SDS011;15675;52.870;-1.416;2023-04-03T14:29:45;4.07;;;1.60;;
28447;SDS011;15675;52.870;-1.416;2023-04-03T14:32:12;5.65;;;1.88;;
28447;SDS011;15675;52.870;-1.416;2023-04-03T14:34:39;5.00;;;2.45;;
28447;SDS011;15675;52.870;-1.416;2023-04-03T14:37:05;7.30;;;2.20;;
28447;SDS011;15675;52.870;-1.416;2023-04-03T14:39:34;6.63;;;1.90;;
28447;SDS011;15675;52.870;-1.416;2023-04-03T14:42:00;8.38;;;2.58;;
28447;SDS011;15675;52.870;-1.416;2023-04-03T14:44:25;6.97;;;1.95;;
28447;SDS011;15675;52.870;-1.416;2023-04-03T14:46:51;9.02;;;2.20;;
28447;SDS011;15675;52.870;-1.416;2023-04-03T14:49:20;6.80;;;2.13;;
28447;SDS011;15675;52.870;-1.416;2023-04-03T14:51:47;7.10;;;1.85;;
28447;SDS011;15675;52.870;-1.416;2023-04-03T14:54:20;5.55;;;2.00;;
28447;SDS011;15675;52.870;-1.416;2023-04-03T14:56:52;7.53;;;2.10;;
28447;SDS011;15675;52.870;-1.416;2023-04-03T14:59:20;5.00;;;2.25;;
28447;SDS011;15675;52.870;-1.416;2023-04-03T15:01:46;5.55;;;2.33;;
28447;SDS011;15675;52.870;-1.416;2023-04-03T15:04:13;7.50;;;1.80;;
28447;SDS011;15675;52.870;-1.416;2023-04-03T15:06:40;4.57;;;2.20;;
28447;SDS011;15675;52.870;-1.416;2023-04-03T15:09:25;4.40;;;2.20;;
28447;SDS011;15675;52.870;-1.416;2023-04-03T15:11:53;5.53;;;2.00;;
28447;SDS011;15675;52.870;-1.416;2023-04-03T15:14:20;5.53;;;1.90;;
28447;SDS011;15675;52.870;-1.416;2023-04-03T15:16:45;4.30;;;2.05;;
28447;SDS011;15675;52.870;-1.416;2023-04-03T15:19:11;6.13;;;1.88;;
28447;SDS011;15675;52.870;-1.416;2023-04-03T15:21:37;4.63;;;2.15;;
28447;SDS011;15675;52.870;-1.416;2023-04-03T15:24:03;4.80;;;1.77;;
28447;SDS011;15675;52.870;-1.416;2023-04-03T15:26:30;5.93;;;2.05;;
28447;SDS011;15675;52.870;-1.416;2023-04-03T15:28:56;6.43;;;2.40;;
28447;SDS011;15675;52.870;-1.416;2023-04-03T15:31:22;4.47;;;2.00;;
28447;SDS011;15675;52.870;-1.416;2023-04-03T15:33:48;5.10;;;2.40;;
28447;SDS011;15675;52.870;-1.416;2023-04-03T15:36:13;7.22;;;2.15;;
28447;SDS011;15675;52.870;-1.416;2023-04-03T15:38:38;3.67;;;1.85;;
28447;SDS011;15675;52.870;-1.416;2023-04-03T15:41:04;3.63;;;2.03;;
28447;SDS011;15675;52.870;-1.416;2023-04-03T15:43:30;5.38;;;2.10;;
28447;SDS011;15675;52.870;-1.416;2023-04-03T15:45:56;6.38;;;2.15;;
28447;SDS011;15675;52.870;-1.416;2023-04-03T15:48:24;4.10;;;1.83;;
28447;SDS011;15675;52.870;-1.416;2023-04-03T15:50:50;5.93;;;2.00;;
28447;SDS011;15675;52.870;-1.416;2023-04-03T15:53:16;11.02;;;2.45;;
28447;SDS011;15675;52.870;-1.416;2023-04-03T15:55:42;8.35;;;2.35;;
28447;SDS011;15675;52.870;-1.416;2023-04-03T15:58:08;4.68;;;1.90;;
28447;SDS011;15675;52.870;-1.416;2023-04-03T16:00:33;6.93;;;2.25;;
28447;SDS011;15675;52.870;-1.416;2023-04-03T16:03:04;3.92;;;2.03;;
28447;SDS011;15675;52.870;-1.416;2023-04-03T16:05:31;5.82;;;2.25;;
28447;SDS011;15675;52.870;-1.416;2023-04-03T16:07:58;5.03;;;2.33;;
28447;SDS011;15675;52.870;-1.416;2023-04-03T16:10:25;6.13;;;2.40;;
28447;SDS011;15675;52.870;-1.416;2023-04-03T16:12:51;6.95;;;2.63;;
28447;SDS011;15675;52.870;-1.416;2023-04-03T16:15:17;5.93;;;2.50;;
28447;SDS011;15675;52.870;-1.416;2023-04-03T16:17:43;6.90;;;2.35;;
28447;SDS011;15675;52.870;-1.416;2023-04-03T16:20:09;6.18;;;2.28;;
28447;SDS011;15675;52.870;-1.416;2023-04-03T16:22:36;3.95;;;1.92;;